Time;durP1;ratioP1;P1;durP2;ratioP2;P2;SDS_P1;SDS_P2;PMS_P1;PMS_P2;Temp;Humidity;BMP_temperature;BMP_pressure;BME280_temperature;BME280_humidity;BME280_pressure;Samples;Min_cycle;Max_cycle;Signal;HPM_P1;HPM_P2
2023/02/23 00:00:32;;;;;;;;;;;;;;;6.44;47.62;92311.31;2058253;69;20074;-74
2023/02/23 00:03:00;;;;;;;;;;;;;;;6.43;47.34;92307.06;2057697;69;20065;-80
2023/02/23 00:05:27;;;;;;;;;;;;;;;6.48;48.26;92306.03;2058449;69;20078;-79
2023/02/23 00:07:54;;;;;;;;;;;;;;;6.33;48.95;92311.97;2058322;69;20069;-76
2023/02/23 00:10:20;;;;;;;;;;;;;;;6.40;48.28;92307.50;2058256;69;20548;-78
2023/02/23 00:12:46;;;;;;;;;;;;;;;6.18;49.69;92299.03;2058400;69;20062;-77
2023/02/23 00:15:13;;;;;;;;;;;;;;;6.18;48.51;92315.06;2058178;69;20065;-78
2023/02/23 00:17:39;;;;;;;;;;;;;;;6.18;49.38;92312.28;2058496;69;20489;-79
2023/02/23 00:20:07;;;;;;;;;;;;;;;6.26;48.85;92310.78;2058356;69;20560;-77
2023/02/23 00:22:33;;;;;;;;;;;;;;;6.10;49.15;92304.81;2058158;69;20089;-76
2023/02/23 00:24:59;;;;;;;;;;;;;;;6.24;48.46;92312.72;2058299;69;20093;-75
2023/02/23 00:27:26;;;;;;;;;;;;;;;6.16;49.06;92312.16;2058443;69;20664;-72
2023/02/23 00:29:52;;;;;;;;;;;;;;;6.23;49.47;92309.19;2058356;69;20508;-78
2023/02/23 00:32:20;;;;;;;;;;;;;;;6.29;48.97;92315.19;2058293;69;20133;-77
2023/02/23 00:34:49;;;;;;;;;;;;;;;6.27;49.15;92319.91;2058357;69;20058;-73
2023/02/23 00:37:15;;;;;;;;;;;;;;;6.16;49.88;92314.94;2058377;69;20058;-78
2023/02/23 00:39:41;;;;;;;;;;;;;;;5.94;50.06;92312.03;2058372;69;20112;-77
2023/02/23 00:42:07;;;;;;;;;;;;;;;6.00;50.33;92314.53;2058281;69;20153;-78
2023/02/23 00:44:33;;;;;;;;;;;;;;;6.08;49.90;92318.63;2057743;69;20065;-78
2023/02/23 00:47:02;;;;;;;;;;;;;;;6.09;49.81;92316.56;2057251;69;20128;-77
2023/02/23 00:49:28;;;;;;;;;;;;;;;6.11;49.69;92323.03;2058274;69;20157;-79
2023/02/23 00:51:56;;;;;;;;;;;;;;;6.07;51.09;92316.44;2057904;69;20217;-79
2023/02/23 00:54:22;;;;;;;;;;;;;;;5.95;50.77;92313.50;2057839;69;20054;-79
2023/02/23 00:56:48;;;;;;;;;;;;;;;5.98;51.05;92315.13;2058491;69;20498;-79
2023/02/23 00:59:14;;;;;;;;;;;;;;;5.92;51.14;92320.28;2057909;69;20054;-78
2023/02/23 01:01:40;;;;;;;;;;;;;;;6.03;51.11;92318.94;2058309;69;20517;-74
2023/02/23 01:04:07;;;;;;;;;;;;;;;5.95;50.50;92321.16;2058213;69;20116;-74
2023/02/23 01:06:36;;;;;;;;;;;;;;;5.96;50.83;92315.00;2058325;69;20077;-76
2023/02/23 01:09:05;;;;;;;;;;;;;;;6.04;50.57;92321.13;2058171;69;20060;-73
2023/02/23 01:11:31;;;;;;;;;;;;;;;5.94;51.04;92317.63;2058290;69;20062;-78
2023/02/23 01:13:57;;;;;;;;;;;;;;;5.91;51.73;92315.25;2057574;69;20049;-76
2023/02/23 01:16:27;;;;;;;;;;;;;;;5.96;50.95;92314.25;2058078;69;20066;-79
2023/02/23 01:18:56;;;;;;;;;;;;;;;5.97;51.33;92321.31;2058031;69;20165;-79
2023/02/23 01:21:25;;;;;;;;;;;;;;;5.91;51.53;92324.38;2057745;69;20196;-79
2023/02/23 01:23:51;;;;;;;;;;;;;;;5.94;51.47;92323.22;2057664;69;20050;-80
2023/02/23 01:26:20;;;;;;;;;;;;;;;5.93;50.48;92316.16;2057653;69;20053;-74
2023/02/23 01:28:49;;;;;;;;;;;;;;;5.78;51.70;92316.44;2058175;69;20251;-80
2023/02/23 01:31:17;;;;;;;;;;;;;;;5.72;52.22;92318.78;2058231;69;20058;-79
2023/02/23 01:33:43;;;;;;;;;;;;;;;5.72;51.17;92308.34;2057695;69;20098;-80
2023/02/23 01:36:08;;;;;;;;;;;;;;;5.75;51.47;92317.63;2058290;69;20116;-79
2023/02/23 01:38:34;;;;;;;;;;;;;;;5.80;51.02;92316.59;2058334;69;20409;-79
2023/02/23 01:40:59;;;;;;;;;;;;;;;5.74;52.08;92319.69;2058821;69;20061;-79
2023/02/23 01:43:25;;;;;;;;;;;;;;;5.71;52.19;92315.25;2059132;69;20137;-81
2023/02/23 01:45:53;;;;;;;;;;;;;;;5.61;51.98;92320.13;2058940;69;20382;-80
2023/02/23 01:48:25;;;;;;;;;;;;;;;5.52;52.53;92320.84;2058687;69;20433;-80
2023/02/23 01:50:53;;;;;;;;;;;;;;;5.48;52.77;92310.13;2058818;69;20089;-78
2023/02/23 01:53:22;;;;;;;;;;;;;;;5.52;52.39;92312.47;2058708;69;20066;-79
2023/02/23 01:55:49;;;;;;;;;;;;;;;5.48;52.00;92314.97;2059271;69;20060;-79
2023/02/23 01:58:18;;;;;;;;;;;;;;;5.43;52.72;92313.94;2061049;69;20058;-79
2023/02/23 02:00:46;;;;;;;;;;;;;;;5.34;52.50;92307.03;2061372;69;20117;-77
2023/02/23 02:03:16;;;;;;;;;;;;;;;5.44;53.83;92309.81;2060816;69;20145;-78
2023/02/23 02:05:42;;;;;;;;;;;;;;;5.26;53.58;92309.22;2060987;69;20083;-79
2023/02/23 02:08:09;;;;;;;;;;;;;;;5.22;53.72;92317.31;2059445;69;20113;-75
2023/02/23 02:10:46;;;;;;;;;;;;;;;5.20;54.07;92310.84;2059638;69;20054;-78
2023/02/23 02:13:19;;;;;;;;;;;;;;;5.15;53.68;92301.44;2059299;69;20101;-74
2023/02/23 02:16:11;;;;;;;;;;;;;;;5.33;53.63;92307.63;2058917;69;20459;-78
2023/02/23 02:18:56;;;;;;;;;;;;;;;5.25;54.26;92312.59;2051272;70;20051;-80
2023/02/23 02:21:34;;;;;;;;;;;;;;;5.24;54.29;92311.16;2051347;70;20455;-80
2023/02/23 02:24:08;;;;;;;;;;;;;;;5.30;53.21;92303.22;2051269;70;20170;-79
2023/02/23 02:26:34;;;;;;;;;;;;;;;5.10;53.75;92303.19;2051165;70;20058;-77
2023/02/23 02:29:18;;;;;;;;;;;;;;;5.10;54.79;92305.25;2051060;70;20181;-78
2023/02/23 02:32:00;;;;;;;;;;;;;;;4.98;54.99;92304.34;2047702;70;20070;-77
2023/02/23 02:34:44;;;;;;;;;;;;;;;5.17;54.57;92304.38;2050973;70;20063;-77
2023/02/23 02:37:26;;;;;;;;;;;;;;;5.07;53.58;92304.34;2048140;70;20047;-77
2023/02/23 02:40:18;;;;;;;;;;;;;;;4.96;54.51;92304.94;2051057;70;20495;-76
2023/02/23 02:42:59;;;;;;;;;;;;;;;5.07;54.65;92309.19;2048242;70;20077;-78
2023/02/23 02:45:28;;;;;;;;;;;;;;;5.04;54.22;92302.75;2048204;70;20465;-78
2023/02/23 02:47:57;;;;;;;;;;;;;;;5.12;54.34;92302.59;2048271;70;20054;-78
2023/02/23 02:50:45;;;;;;;;;;;;;;;5.18;55.38;92305.84;2051069;70;20051;-78
2023/02/23 02:53:13;;;;;;;;;;;;;;;5.33;53.23;92308.34;2051038;70;20053;-78
2023/02/23 02:55:42;;;;;;;;;;;;;;;5.27;53.34;92302.34;2053482;69;20074;-78
2023/02/23 02:58:10;;;;;;;;;;;;;;;5.17;53.98;92307.16;2058797;69;20085;-79
2023/02/23 04:19:37;;;;;;;;;;;;;;;5.66;54.35;92327.47;2055759;69;20189;-75
2023/02/23 04:22:02;;;;;;;;;;;;;;;5.70;54.53;92327.75;2055659;69;20145;-79
2023/02/23 04:24:29;;;;;;;;;;;;;;;5.75;54.07;92323.94;2055074;70;20162;-74
2023/02/23 04:26:54;;;;;;;;;;;;;;;5.75;54.26;92329.53;2055113;70;20473;-78
2023/02/23 04:29:20;;;;;;;;;;;;;;;5.91;53.29;92320.81;2055328;70;20058;-80
2023/02/23 04:31:46;;;;;;;;;;;;;;;5.92;53.41;92328.66;2055218;69;20181;-79
2023/02/23 04:34:11;;;;;;;;;;;;;;;5.60;54.44;92324.25;2054674;69;20061;-79
2023/02/23 04:36:37;;;;;;;;;;;;;;;5.71;54.13;92326.44;2055531;69;20430;-79
2023/02/23 04:39:02;;;;;;;;;;;;;;;5.87;53.06;92324.09;2054758;70;20060;-78
2023/02/23 04:41:31;;;;;;;;;;;;;;;5.85;53.39;92324.66;2055636;69;20449;-79
2023/02/23 04:43:57;;;;;;;;;;;;;;;5.99;52.37;92322.16;2055338;69;20501;-78
2023/02/23 04:46:22;;;;;;;;;;;;;;;5.97;52.02;92318.50;2055487;69;20082;-79
2023/02/23 04:48:48;;;;;;;;;;;;;;;5.93;52.52;92321.00;2056545;69;20129;-77
2023/02/23 04:51:14;;;;;;;;;;;;;;;5.96;52.90;92322.63;2061887;69;20081;-77
2023/02/23 04:53:39;;;;;;;;;;;;;;;6.08;52.05;92329.81;2061932;69;20046;-78
2023/02/23 04:56:05;;;;;;;;;;;;;;;6.08;52.85;92326.28;2061968;69;20170;-77
2023/02/23 04:58:31;;;;;;;;;;;;;;;6.05;54.09;92327.47;2062039;69;20421;-79
2023/02/23 05:01:02;;;;;;;;;;;;;;;6.11;50.46;92325.84;2061953;69;20053;-79
2023/02/23 05:03:28;;;;;;;;;;;;;;;6.18;51.77;92329.06;2061883;69;20049;-81
2023/02/23 05:05:53;;;;;;;;;;;;;;;6.24;50.56;92330.22;2062047;69;20066;-80
2023/02/23 05:08:19;;;;;;;;;;;;;;;6.07;52.48;92327.59;2061631;69;20046;-80
2023/02/23 05:10:45;;;;;;;;;;;;;;;6.02;52.62;92331.44;2061540;69;20046;-77
2023/02/23 05:13:10;;;;;;;;;;;;;;;6.16;52.93;92331.72;2061695;69;20060;-78
2023/02/23 05:15:37;;;;;;;;;;;;;;;6.10;53.12;92324.38;2061677;69;20520;-79
2023/02/23 05:18:02;;;;;;;;;;;;;;;6.08;52.50;92321.41;2061511;69;20061;-80
2023/02/23 05:20:28;;;;;;;;;;;;;;;6.16;51.89;92318.47;2061691;69;20104;-77
2023/02/23 05:22:54;;;;;;;;;;;;;;;6.17;51.75;92325.53;2058413;69;20073;-78
2023/02/23 05:25:20;;;;;;;;;;;;;;;6.18;52.19;92312.28;2058496;69;20054;-80
2023/02/23 05:27:45;;;;;;;;;;;;;;;6.15;52.11;92324.66;2058467;69;20501;-79
2023/02/23 05:30:11;;;;;;;;;;;;;;;5.99;53.31;92316.56;2058566;69;20149;-78
2023/02/23 05:32:36;;;;;;;;;;;;;;;6.03;53.49;92328.06;2058160;69;20046;-79
2023/02/23 05:35:02;;;;;;;;;;;;;;;6.15;52.92;92328.19;2058385;69;20049;-79
2023/02/23 05:37:27;;;;;;;;;;;;;;;6.10;53.44;92320.84;2058507;69;20053;-78
2023/02/23 05:39:53;;;;;;;;;;;;;;;6.13;53.43;92316.84;2058312;69;20140;-79
2023/02/23 05:42:19;;;;;;;;;;;;;;;6.01;54.03;92324.41;2058040;69;20109;-78
2023/02/23 05:44:44;;;;;;;;;;;;;;;5.97;54.06;92327.63;2058535;69;20482;-76
2023/02/23 05:47:10;;;;;;;;;;;;;;;5.82;54.43;92322.31;2058462;69;20046;-77
2023/02/23 05:49:36;;;;;;;;;;;;;;;5.89;54.19;92327.00;2058142;69;20050;-79
2023/02/23 05:52:01;;;;;;;;;;;;;;;5.84;54.08;92320.41;2059000;69;20057;-79
2023/02/23 05:54:27;;;;;;;;;;;;;;;5.81;55.46;92327.16;2059738;69;20194;-79
2023/02/23 05:56:53;;;;;;;;;;;;;;;5.80;55.72;92322.91;2059316;69;20419;-80
2023/02/23 05:59:19;;;;;;;;;;;;;;;5.82;55.75;92331.44;2059200;69;20076;-79
2023/02/23 06:01:45;;;;;;;;;;;;;;;5.93;55.09;92321.75;2058456;69;20049;-79
2023/02/23 06:04:11;;;;;;;;;;;;;;;5.85;55.80;92332.31;2058059;69;20508;-78
2023/02/23 06:06:37;;;;;;;;;;;;;;;5.83;54.89;92330.09;2058421;69;20114;-75
2023/02/23 06:09:03;;;;;;;;;;;;;;;5.77;54.57;92337.31;2058547;69;20054;-81
2023/02/23 06:11:29;;;;;;;;;;;;;;;5.80;54.23;92339.66;2058622;69;20054;-79
2023/02/23 06:13:58;;;;;;;;;;;;;;;5.70;55.11;92332.63;2058463;69;20486;-80
2023/02/23 06:16:23;;;;;;;;;;;;;;;5.72;55.51;92335.53;2058388;69;20082;-80
2023/02/23 06:18:49;;;;;;;;;;;;;;;5.80;55.27;92342.44;2058228;69;20053;-80
2023/02/23 06:21:14;;;;;;;;;;;;;;;5.80;55.00;92336.88;2058701;69;20047;-78
2023/02/23 06:23:40;;;;;;;;;;;;;;;5.92;54.50;92341.91;2058436;69;20543;-76
2023/02/23 06:26:06;;;;;;;;;;;;;;;5.96;54.64;92347.78;2058262;69;20410;-80
2023/02/23 06:28:32;;;;;;;;;;;;;;;5.96;54.39;92340.13;2058892;69;20050;-81
2023/02/23 06:30:57;;;;;;;;;;;;;;;5.95;54.26;92349.09;2058889;69;20046;-80
2023/02/23 06:33:23;;;;;;;;;;;;;;;5.69;55.28;92353.50;2058920;69;20246;-81
2023/02/23 06:35:49;;;;;;;;;;;;;;;5.84;55.52;92350.41;2058856;69;20058;-81
2023/02/23 06:38:14;;;;;;;;;;;;;;;5.88;54.97;92356.28;2058923;69;20113;-76
2023/02/23 06:40:40;;;;;;;;;;;;;;;6.00;54.29;92365.56;2058770;69;20145;-77
2023/02/23 06:43:06;;;;;;;;;;;;;;;6.07;54.68;92363.94;2061338;69;20149;-80
2023/02/23 06:45:31;;;;;;;;;;;;;;;6.08;54.41;92368.94;2062117;69;20450;-80
2023/02/23 06:47:58;;;;;;;;;;;;;;;6.10;54.84;92373.94;2061984;69;20085;-80
2023/02/23 06:50:23;;;;;;;;;;;;;;;6.01;56.03;92375.41;2061617;69;20701;-79
2023/02/23 06:52:49;;;;;;;;;;;;;;;6.12;56.48;92371.28;2062127;69;20045;-79
2023/02/23 06:55:14;;;;;;;;;;;;;;;6.16;55.76;92379.22;2062069;69;20050;-81
2023/02/23 06:57:40;;;;;;;;;;;;;;;6.26;55.16;92368.75;2061915;69;20050;-81
2023/02/23 07:00:06;;;;;;;;;;;;;;;6.11;55.73;92381.00;2062033;69;20049;-79
2023/02/23 07:02:33;;;;;;;;;;;;;;;6.08;55.97;92390.56;2061807;69;20555;-81
2023/02/23 07:04:59;;;;;;;;;;;;;;;5.94;56.94;92393.06;2061898;69;20061;-82
2023/02/23 07:07:24;;;;;;;;;;;;;;;6.18;55.72;92385.69;2061776;69;20108;-80
2023/02/23 07:09:50;;;;;;;;;;;;;;;6.17;55.75;92389.06;2061905;69;20120;-80
2023/02/23 07:12:15;;;;;;;;;;;;;;;6.24;56.27;92394.53;2062002;69;20041;-80
2023/02/23 07:14:41;;;;;;;;;;;;;;;6.41;55.03;92390.06;2061955;69;20053;-79
2023/02/23 07:17:06;;;;;;;;;;;;;;;6.46;54.95;92395.38;2061092;69;20090;-83
2023/02/23 07:19:32;;;;;;;;;;;;;;;6.44;55.25;92391.69;2061393;69;20049;-81
2023/02/23 07:21:58;;;;;;;;;;;;;;;6.58;55.40;92399.00;2061446;69;20050;-80
2023/02/23 07:24:27;;;;;;;;;;;;;;;6.83;55.13;92395.13;2061330;69;20054;-78
2023/02/23 07:26:52;;;;;;;;;;;;;;;6.87;54.94;92403.78;2062111;69;20136;-79
2023/02/23 07:29:18;;;;;;;;;;;;;;;7.06;54.37;92398.13;2061891;69;20092;-79
2023/02/23 07:31:44;;;;;;;;;;;;;;;7.08;52.32;92398.25;2061833;69;20086;-79
2023/02/23 07:34:10;;;;;;;;;;;;;;;7.21;52.87;92399.81;2060255;69;20069;-79
2023/02/23 07:36:35;;;;;;;;;;;;;;;7.40;51.25;92401.78;2059714;69;20120;-81
2023/02/23 07:39:02;;;;;;;;;;;;;;;7.34;51.64;92407.72;2060491;69;20124;-80
2023/02/23 07:41:27;;;;;;;;;;;;;;;7.32;51.87;92401.97;2060306;69;20532;-80
2023/02/23 07:43:53;;;;;;;;;;;;;;;6.95;53.21;92403.63;2060792;69;20180;-80
2023/02/23 07:46:18;;;;;;;;;;;;;;;7.33;51.08;92403.47;2060905;69;20061;-80
2023/02/23 07:48:45;;;;;;;;;;;;;;;7.32;51.95;92404.75;2060796;69;20056;-79
2023/02/23 07:51:11;;;;;;;;;;;;;;;7.22;52.25;92406.88;2062010;69;20045;-79
2023/02/23 07:53:37;;;;;;;;;;;;;;;7.19;52.00;92415.72;2062103;69;20050;-82
2023/02/23 07:56:03;;;;;;;;;;;;;;;7.22;52.03;92406.88;2061789;69;20046;-79
2023/02/23 07:58:29;;;;;;;;;;;;;;;7.44;51.59;92412.53;2061875;69;20046;-79
2023/02/23 08:00:55;;;;;;;;;;;;;;;7.73;51.45;92412.34;2061390;69;20050;-78
2023/02/23 08:03:21;;;;;;;;;;;;;;;7.89;51.21;92413.44;2061695;69;20061;-77
2023/02/23 08:05:46;;;;;;;;;;;;;;;7.63;50.93;92413.16;2062056;69;20045;-78
2023/02/23 08:08:13;;;;;;;;;;;;;;;7.66;50.66;92404.91;2062021;69;20046;-78
2023/02/23 08:10:39;;;;;;;;;;;;;;;7.99;50.21;92411.28;2062142;69;20053;-80
2023/02/23 08:13:04;;;;;;;;;;;;;;;8.23;49.38;92403.72;2061401;69;20444;-79
2023/02/23 08:15:30;;;;;;;;;;;;;;;8.25;49.60;92405.94;2061942;69;20045;-79
2023/02/23 08:17:56;;;;;;;;;;;;;;;8.11;49.42;92403.69;2061885;69;20056;-78
2023/02/23 08:20:21;;;;;;;;;;;;;;;8.18;49.33;92404.06;2061851;69;20050;-80
2023/02/23 08:22:51;;;;;;;;;;;;;;;8.22;49.12;92407.88;2061892;69;20143;-79
2023/02/23 08:25:17;;;;;;;;;;;;;;;8.26;49.60;92401.78;2062328;69;20050;-78
2023/02/23 08:27:42;;;;;;;;;;;;;;;8.59;48.13;92407.41;2061841;69;20085;-77
2023/02/23 08:30:08;;;;;;;;;;;;;;;8.46;48.49;92413.59;2061897;69;20053;-79
2023/02/23 08:32:34;;;;;;;;;;;;;;;8.84;48.11;92416.03;2061632;69;20087;-79
2023/02/23 08:35:01;;;;;;;;;;;;;;;8.99;46.45;92423.25;2061801;69;20478;-77
2023/02/23 08:37:28;;;;;;;;;;;;;;;8.95;48.23;92417.38;2061882;69;20141;-80
2023/02/23 08:39:54;;;;;;;;;;;;;;;8.84;48.35;92424.47;2061889;69;20052;-78
2023/02/23 08:42:19;;;;;;;;;;;;;;;8.71;48.28;92415.88;2061717;69;20046;-78
2023/02/23 08:44:45;;;;;;;;;;;;;;;8.75;48.04;92414.06;2061855;69;20130;-77
2023/02/23 08:47:10;;;;;;;;;;;;;;;8.92;47.90;92415.78;2062225;69;20050;-79
2023/02/23 08:49:36;;;;;;;;;;;;;;;9.20;47.84;92407.66;2064664;69;20140;-77
2023/02/23 08:52:01;;;;;;;;;;;;;;;9.40;46.80;92412.44;2067035;69;20463;-76
2023/02/23 08:54:27;;;;;;;;;;;;;;;9.74;46.76;92403.84;2064882;69;20053;-76
2023/02/23 08:56:54;;;;;;;;;;;;;;;9.82;46.58;92404.31;2062097;69;20049;-78
2023/02/23 08:59:20;;;;;;;;;;;;;;;9.75;46.15;92408.13;2062215;69;20042;-80
2023/02/23 09:01:45;;;;;;;;;;;;;;;9.97;46.33;92397.44;2061685;69;20394;-78
2023/02/23 09:04:10;;;;;;;;;;;;;;;10.36;46.24;92401.16;2061899;69;20054;-79
2023/02/23 09:06:36;;;;;;;;;;;;;;;10.78;44.93;92404.88;2061674;69;20050;-78
2023/02/23 09:09:02;;;;;;;;;;;;;;;10.90;44.58;92404.78;2061627;69;20490;-78
2023/02/23 09:11:27;;;;;;;;;;;;;;;10.76;44.03;92404.03;2061007;69;20053;-77
2023/02/23 09:13:53;;;;;;;;;;;;;;;11.16;43.32;92411.13;2058416;69;20375;-78
2023/02/23 09:16:19;;;;;;;;;;;;;;;10.28;44.33;92411.22;2058482;69;20074;-81
2023/02/23 09:18:44;;;;;;;;;;;;;;;10.91;43.70;92409.81;2058263;69;20053;-80
2023/02/23 09:21:17;;;;;;;;;;;;;;;11.13;42.54;92404.69;2058309;69;20048;-81
2023/02/23 09:23:43;;;;;;;;;;;;;;;11.31;42.36;92410.53;2058183;69;20050;-81
2023/02/23 09:26:09;;;;;;;;;;;;;;;12.01;41.35;92412.09;2058227;69;20061;-79
2023/02/23 09:28:37;;;;;;;;;;;;;;;11.85;41.02;92409.16;2058220;69;20393;-77
2023/02/23 09:31:07;;;;;;;;;;;;;;;12.02;40.88;92410.72;2058110;69;20112;-78
2023/02/23 09:33:32;;;;;;;;;;;;;;;12.41;40.77;92407.00;2057952;69;20434;-78
2023/02/23 09:35:57;;;;;;;;;;;;;;;12.33;39.81;92398.88;2058288;69;20050;-79
2023/02/23 09:38:23;;;;;;;;;;;;;;;12.56;39.69;92392.22;2058259;69;20239;-78
2023/02/23 09:40:53;;;;;;;;;;;;;;;11.80;40.41;92392.63;2058343;69;20080;-80
2023/02/23 09:43:24;;;;;;;;;;;;;;;12.24;40.40;92388.53;2058312;69;20054;-80
2023/02/23 09:45:54;;;;;;;;;;;;;;;13.14;40.02;92389.97;2058298;69;20665;-78
2023/02/23 09:48:21;;;;;;;;;;;;;;;13.22;38.19;92391.09;2058507;69;20050;-80
2023/02/23 09:50:51;;;;;;;;;;;;;;;14.17;38.68;92384.66;2058341;69;20096;-78
2023/02/23 09:53:19;;;;;;;;;;;;;;;14.40;36.62;92383.50;2058319;69;20086;-79
2023/02/23 09:55:46;;;;;;;;;;;;;;;14.99;37.69;92389.47;2058389;69;20138;-80
2023/02/23 09:58:29;;;;;;;;;;;;;;;14.73;35.85;92391.25;2058844;69;20120;-80
2023/02/23 10:01:08;;;;;;;;;;;;;;;15.72;35.35;92385.88;2058799;69;20525;-80
2023/02/23 10:03:37;;;;;;;;;;;;;;;15.52;35.20;92385.09;2058771;69;20077;-80
2023/02/23 10:06:06;;;;;;;;;;;;;;;17.00;34.29;92392.44;2058699;69;20137;-81
2023/02/23 10:08:38;;;;;;;;;;;;;;;16.55;33.64;92395.16;2058724;69;20210;-80
2023/02/23 10:11:03;;;;;;;;;;;;;;;16.26;33.22;92385.63;2058704;69;20197;-81
2023/02/23 10:13:49;;;;;;;;;;;;;;;16.57;32.10;92387.41;2058750;69;20563;-80
2023/02/23 10:16:21;;;;;;;;;;;;;;;16.58;31.73;92390.97;2058199;69;20073;-80
2023/02/23 10:19:05;;;;;;;;;;;;;;;17.03;32.18;92381.81;2058616;69;20058;-80
2023/02/23 10:21:30;;;;;;;;;;;;;;;16.86;31.94;92386.28;2058309;69;20054;-80
2023/02/23 10:23:59;;;;;;;;;;;;;;;17.18;31.79;92380.16;2058817;69;20054;-75
2023/02/23 10:26:25;;;;;;;;;;;;;;;16.72;31.38;92383.69;2058668;69;20078;-76
2023/02/23 10:28:52;;;;;;;;;;;;;;;18.01;30.80;92379.81;2058791;69;20056;-77
2023/02/23 10:31:24;;;;;;;;;;;;;;;18.00;30.61;92381.19;2058736;69;20473;-76
2023/02/23 10:33:51;;;;;;;;;;;;;;;16.77;32.14;92376.75;2058738;69;20046;-79
2023/02/23 10:36:21;;;;;;;;;;;;;;;17.14;31.54;92368.66;2058712;69;20062;-80
2023/02/23 10:38:46;;;;;;;;;;;;;;;16.71;32.08;92365.16;2058673;69;20547;-79
2023/02/23 10:41:12;;;;;;;;;;;;;;;16.42;32.50;92363.47;2058828;69;20073;-80
2023/02/23 10:43:38;;;;;;;;;;;;;;;16.72;31.98;92363.81;2058694;69;20050;-77
2023/02/23 10:46:03;;;;;;;;;;;;;;;15.87;33.11;92358.75;2058859;69;20450;-79
2023/02/23 10:48:36;;;;;;;;;;;;;;;15.29;34.32;92357.25;2058965;69;20057;-79
2023/02/23 10:51:04;;;;;;;;;;;;;;;16.18;32.98;92359.81;2059691;69;20108;-80
2023/02/23 10:53:34;;;;;;;;;;;;;;;15.12;34.29;92353.06;2058949;69;20050;-79
2023/02/23 10:56:03;;;;;;;;;;;;;;;14.99;34.70;92344.13;2058605;69;20114;-80
2023/02/23 10:58:28;;;;;;;;;;;;;;;16.03;33.27;92347.22;2058192;69;20167;-80
2023/02/23 11:00:58;;;;;;;;;;;;;;;17.66;32.09;92351.72;2058743;69;20077;-80
2023/02/23 11:03:24;;;;;;;;;;;;;;;17.44;31.42;92343.25;2058570;69;20172;-78
2023/02/23 11:05:51;;;;;;;;;;;;;;;17.68;30.53;92346.81;2058607;69;20471;-79
2023/02/23 11:08:23;;;;;;;;;;;;;;;19.15;30.20;92347.09;2058058;69;20406;-79
2023/02/23 11:10:59;;;;;;;;;;;;;;;18.00;31.05;92343.44;2058693;69;20577;-80
2023/02/23 11:13:26;;;;;;;;;;;;;;;20.10;27.59;92344.91;2058797;69;20057;-79
2023/02/23 11:16:12;;;;;;;;;;;;;;;19.17;28.96;92342.19;2058501;69;20070;-80
2023/02/23 11:18:39;;;;;;;;;;;;;;;16.98;31.77;92337.59;2056943;69;20049;-79
2023/02/23 11:21:09;;;;;;;;;;;;;;;17.42;31.53;92329.69;2059093;69;20085;-81
2023/02/23 11:23:36;;;;;;;;;;;;;;;17.70;30.98;92323.38;2061867;69;20137;-81
2023/02/23 11:26:03;;;;;;;;;;;;;;;18.52;29.66;92321.34;2061848;69;20136;-81
2023/02/23 11:28:31;;;;;;;;;;;;;;;17.47;31.16;92322.72;2061870;69;20042;-81
2023/02/23 11:31:16;;;;;;;;;;;;;;;18.31;30.07;92319.38;2061865;69;20046;-80
2023/02/23 11:33:42;;;;;;;;;;;;;;;18.37;30.24;92319.53;2061632;69;20080;-82
2023/02/23 11:36:22;;;;;;;;;;;;;;;18.07;30.30;92307.34;2062061;69;20414;-81
2023/02/23 11:38:59;;;;;;;;;;;;;;;18.07;30.13;92305.22;2061920;69;20144;-80
2023/02/23 11:41:25;;;;;;;;;;;;;;;18.25;29.79;92302.84;2061913;69;20504;-84
2023/02/23 11:43:55;;;;;;;;;;;;;;;18.49;29.72;92297.03;2062062;69;20046;-84
2023/02/23 11:46:21;;;;;;;;;;;;;;;18.25;30.23;92300.00;2061967;69;20112;-81
2023/02/23 11:49:06;;;;;;;;;;;;;;;18.14;30.55;92292.56;2061807;69;20065;-82
2023/02/23 11:51:34;;;;;;;;;;;;;;;18.21;30.48;92282.06;2061311;69;20053;-84
2023/02/23 11:54:01;;;;;;;;;;;;;;;17.09;30.77;92287.44;2061900;69;20046;-84
2023/02/23 11:56:27;;;;;;;;;;;;;;;16.81;31.69;92279.50;2061839;69;20045;-80
2023/02/23 11:58:58;;;;;;;;;;;;;;;16.68;32.40;92275.53;2061890;69;20089;-82
2023/02/23 12:01:45;;;;;;;;;;;;;;;16.88;31.90;92274.75;2062058;69;20056;-83
2023/02/23 12:04:30;;;;;;;;;;;;;;;17.11;31.29;92268.34;2061805;69;20100;-83
2023/02/23 12:07:16;;;;;;;;;;;;;;;16.15;31.97;92268.13;2062706;69;20125;-81
2023/02/23 12:09:43;;;;;;;;;;;;;;;17.09;32.01;92271.13;2060416;69;20060;-78
2023/02/23 12:12:11;;;;;;;;;;;;;;;16.85;31.78;92256.88;2062101;69;20056;-81
2023/02/23 12:14:37;;;;;;;;;;;;;;;16.80;31.73;92254.59;2062100;69;20486;-77
2023/02/23 12:17:06;;;;;;;;;;;;;;;16.21;32.63;92256.25;2061377;69;20042;-81
2023/02/23 12:19:46;;;;;;;;;;;;;;;15.69;33.38;92256.66;2061806;69;20054;-79
2023/02/23 12:22:18;;;;;;;;;;;;;;;15.86;33.02;92251.53;2061806;69;20141;-78
2023/02/23 12:24:49;;;;;;;;;;;;;;;15.30;33.46;92237.50;2061736;69;20505;-79
2023/02/23 12:27:16;;;;;;;;;;;;;;;15.73;33.52;92241.88;2061969;69;20116;-78
2023/02/23 12:29:44;;;;;;;;;;;;;;;15.08;33.28;92236.72;2062191;69;20049;-79
2023/02/23 12:32:26;;;;;;;;;;;;;;;14.43;35.10;92234.94;2061879;69;20120;-79
2023/02/23 12:34:52;;;;;;;;;;;;;;;15.48;33.47;92237.44;2061835;69;20054;-80
2023/02/23 12:37:36;;;;;;;;;;;;;;;14.67;34.11;92241.59;2061794;69;20120;-79
2023/02/23 12:40:23;;;;;;;;;;;;;;;14.84;34.00;92237.25;2061820;69;20082;-80
2023/02/23 12:42:51;;;;;;;;;;;;;;;14.93;34.26;92229.78;2061798;69;20148;-80
2023/02/23 12:45:36;;;;;;;;;;;;;;;15.37;33.68;92230.69;2061866;69;20476;-78
2023/02/23 12:48:04;;;;;;;;;;;;;;;15.51;32.91;92231.19;2061707;69;20123;-80
2023/02/23 12:50:49;;;;;;;;;;;;;;;15.87;33.10;92224.63;2061817;69;20137;-77
2023/02/23 12:53:24;;;;;;;;;;;;;;;15.72;33.25;92220.56;2061787;69;20651;-77
2023/02/23 12:56:03;;;;;;;;;;;;;;;14.72;33.90;92220.53;2062055;69;20046;-80
2023/02/23 12:58:38;;;;;;;;;;;;;;;14.87;33.89;92216.13;2062063;69;20050;-79
2023/02/23 13:01:11;;;;;;;;;;;;;;;15.54;33.26;92217.81;2061939;69;20061;-79
2023/02/23 13:03:36;;;;;;;;;;;;;;;15.71;32.98;92219.84;2061702;69;20479;-78
2023/02/23 13:06:20;;;;;;;;;;;;;;;16.02;33.22;92218.00;2061744;69;20050;-80
2023/02/23 13:09:04;;;;;;;;;;;;;;;15.48;33.54;92214.75;2062056;69;20115;-80
2023/02/23 13:11:54;;;;;;;;;;;;;;;15.78;33.08;92217.94;2061805;69;20145;-82
2023/02/23 13:14:46;;;;;;;;;;;;;;;15.64;33.17;92209.66;2061890;69;20054;-80
2023/02/23 13:17:15;;;;;;;;;;;;;;;15.74;33.34;92214.97;2061831;69;20048;-79
2023/02/23 13:19:47;;;;;;;;;;;;;;;15.74;33.18;92215.69;2061826;69;20045;-79
2023/02/23 13:22:15;;;;;;;;;;;;;;;15.57;33.82;92218.59;2061875;69;20058;-78
2023/02/23 13:24:45;;;;;;;;;;;;;;;15.22;33.95;92215.28;2062218;69;20053;-79
2023/02/23 13:27:16;;;;;;;;;;;;;;;15.24;34.45;92223.13;2061954;69;20445;-79
2023/02/23 13:29:43;;;;;;;;;;;;;;;14.68;35.17;92219.66;2061744;69;20481;-80
2023/02/23 13:32:13;;;;;;;;;;;;;;;14.53;35.51;92221.22;2062397;69;20090;-79
2023/02/23 13:34:45;;;;;;;;;;;;;;;15.15;34.80;92227.75;2062327;69;20085;-79
2023/02/23 13:37:12;;;;;;;;;;;;;;;15.06;34.90;92219.63;2061875;69;20088;-80
2023/02/23 13:39:47;;;;;;;;;;;;;;;14.76;35.56;92214.28;2062337;69;20097;-82
2023/02/23 13:42:16;;;;;;;;;;;;;;;15.12;35.34;92214.91;2062383;69;20046;-81
2023/02/23 13:44:55;;;;;;;;;;;;;;;14.75;35.55;92218.47;2062313;69;20054;-80
2023/02/23 13:47:23;;;;;;;;;;;;;;;14.75;35.93;92218.47;2062187;69;20425;-79
2023/02/23 13:49:55;;;;;;;;;;;;;;;14.32;36.78;92213.28;2065427;69;20053;-78
2023/02/23 13:52:54;;;;;;;;;;;;;;;14.85;36.17;92218.16;2065209;69;20045;-80
2023/02/23 13:55:25;;;;;;;;;;;;;;;14.85;35.75;92218.88;2061087;69;20445;-81
2023/02/23 13:58:14;;;;;;;;;;;;;;;14.88;35.60;92214.00;2062269;69;20564;-80
2023/02/23 14:00:39;;;;;;;;;;;;;;;14.94;35.60;92214.25;2062325;69;20144;-81
2023/02/23 14:03:06;;;;;;;;;;;;;;;14.16;36.95;92214.09;2062131;69;20061;-78
2023/02/23 14:05:40;;;;;;;;;;;;;;;13.97;37.13;92215.47;2062149;69;20393;-80
2023/02/23 14:08:06;;;;;;;;;;;;;;;13.42;37.72;92213.19;2062279;69;20045;-80
2023/02/23 14:10:39;;;;;;;;;;;;;;;13.86;37.77;92207.19;2062120;69;20050;-80
2023/02/23 14:13:16;;;;;;;;;;;;;;;13.62;38.03;92216.16;2062174;69;20109;-80
2023/02/23 14:15:52;;;;;;;;;;;;;;;14.29;37.40;92218.13;2062365;69;20056;-80
2023/02/23 14:18:17;;;;;;;;;;;;;;;14.15;37.45;92212.63;2061992;69;20395;-83
2023/02/23 14:20:43;;;;;;;;;;;;;;;14.08;37.92;92213.03;2062155;69;20052;-81